sensor_id;sensor_type;location;lat;lon;timestamp;pressure;altitude;pressure_sealevel;temperature;humidity
51053;BME280;37093;37.716;-122.060;2023-08-17T00:01:35;99512.12;;;31.72;26.90
51053;BME280;37093;37.716;-122.060;2023-08-17T00:04:04;99513.63;;;32.10;27.28
51053;BME280;37093;37.716;-122.060;2023-08-17T00:06:33;99515.31;;;31.56;27.31
51053;BME280;37093;37.716;-122.060;2023-08-17T00:09:01;99511.82;;;31.47;27.75
51053;BME280;37093;37.716;-122.060;2023-08-17T00:11:30;99508.12;;;31.79;28.32
51053;BME280;37093;37.716;-122.060;2023-08-17T00:13:59;99501.16;;;31.38;27.71
51053;BME280;37093;37.716;-122.060;2023-08-17T00:16:28;99502.29;;;30.89;28.66
51053;BME280;37093;37.716;-122.060;2023-08-17T00:18:57;99501.39;;;31.57;28.05
51053;BME280;37093;37.716;-122.060;2023-08-17T00:21:25;99503.28;;;31.70;27.35
51053;BME280;37093;37.716;-122.060;2023-08-17T00:23:54;99505.03;;;31.67;27.53
51053;BME280;37093;37.716;-122.060;2023-08-17T00:26:22;99505.13;;;32.66;26.72
51053;BME280;37093;37.716;-122.060;2023-08-17T00:28:51;99504.98;;;32.72;26.97
51053;BME280;37093;37.716;-122.060;2023-08-17T00:31:20;99506.13;;;31.56;28.13
51053;BME280;37093;37.716;-122.060;2023-08-17T00:33:47;99513.27;;;31.29;29.20
51053;BME280;37093;37.716;-122.060;2023-08-17T00:36:16;99510.39;;;31.74;28.07
51053;BME280;37093;37.716;-122.060;2023-08-17T00:38:45;99511.04;;;31.71;28.95
51053;BME280;37093;37.716;-122.060;2023-08-17T00:41:13;99511.74;;;32.25;28.22
51053;BME280;37093;37.716;-122.060;2023-08-17T00:43:41;99515.22;;;31.87;28.40
51053;BME280;37093;37.716;-122.060;2023-08-17T00:46:11;99513.19;;;31.24;28.61
51053;BME280;37093;37.716;-122.060;2023-08-17T00:48:40;99506.58;;;31.83;28.19
51053;BME280;37093;37.716;-122.060;2023-08-17T00:51:09;99504.59;;;31.63;28.07
51053;BME280;37093;37.716;-122.060;2023-08-17T00:53:37;99499.23;;;32.23;26.83
51053;BME280;37093;37.716;-122.060;2023-08-17T00:56:06;99496.43;;;31.93;28.26
51053;BME280;37093;37.716;-122.060;2023-08-17T00:58:34;99491.44;;;30.66;29.14
51053;BME280;37093;37.716;-122.060;2023-08-17T01:01:03;99490.49;;;31.66;28.00
51053;BME280;37093;37.716;-122.060;2023-08-17T01:03:32;99489.41;;;31.27;28.58
51053;BME280;37093;37.716;-122.060;2023-08-17T01:06:01;99491.37;;;31.33;28.21
51053;BME280;37093;37.716;-122.060;2023-08-17T01:08:32;99489.51;;;31.85;27.51
51053;BME280;37093;37.716;-122.060;2023-08-17T01:11:07;99493.58;;;32.31;27.27
51053;BME280;37093;37.716;-122.060;2023-08-17T01:13:47;99493.96;;;31.70;27.08
51053;BME280;37093;37.716;-122.060;2023-08-17T01:16:24;99489.35;;;31.99;27.47
51053;BME280;37093;37.716;-122.060;2023-08-17T01:18:56;99486.86;;;31.80;27.11
51053;BME280;37093;37.716;-122.060;2023-08-17T01:21:27;99479.43;;;31.91;27.40
51053;BME280;37093;37.716;-122.060;2023-08-17T01:23:58;99476.16;;;31.97;27.21
51053;BME280;37093;37.716;-122.060;2023-08-17T01:26:31;99474.99;;;31.69;27.95
51053;BME280;37093;37.716;-122.060;2023-08-17T01:29:04;99472.25;;;32.07;27.19
51053;BME280;37093;37.716;-122.060;2023-08-17T01:31:40;99465.12;;;31.82;27.14
51053;BME280;37093;37.716;-122.060;2023-08-17T01:34:17;99457.90;;;32.20;27.26
51053;BME280;37093;37.716;-122.060;2023-08-17T01:36:50;99450.30;;;31.88;27.78
51053;BME280;37093;37.716;-122.060;2023-08-17T01:39:26;99448.08;;;32.23;27.18
51053;BME280;37093;37.716;-122.060;2023-08-17T01:41:57;99446.70;;;31.38;27.74
51053;BME280;37093;37.716;-122.060;2023-08-17T01:44:26;99447.53;;;31.45;28.81
51053;BME280;37093;37.716;-122.060;2023-08-17T01:46:55;99450.57;;;30.46;29.12
51053;BME280;37093;37.716;-122.060;2023-08-17T01:49:23;99455.29;;;30.56;29.74
51053;BME280;37093;37.716;-122.060;2023-08-17T01:51:52;99453.23;;;29.84;29.96
51053;BME280;37093;37.716;-122.060;2023-08-17T01:54:20;99442.67;;;30.16;29.83
51053;BME280;37093;37.716;-122.060;2023-08-17T01:56:53;99434.56;;;29.36;30.37
51053;BME280;37093;37.716;-122.060;2023-08-17T01:59:23;99429.31;;;29.14;31.02
51053;BME280;37093;37.716;-122.060;2023-08-17T02:01:51;99426.18;;;29.22;30.90
51053;BME280;37093;37.716;-122.060;2023-08-17T02:04:22;99429.95;;;29.58;30.66
51053;BME280;37093;37.716;-122.060;2023-08-17T02:06:50;99435.29;;;29.71;29.96
51053;BME280;37093;37.716;-122.060;2023-08-17T02:09:19;99430.44;;;29.48;30.73
51053;BME280;37093;37.716;-122.060;2023-08-17T02:11:48;99425.90;;;29.50;30.26
51053;BME280;37093;37.716;-122.060;2023-08-17T02:14:17;99426.79;;;29.99;29.63
51053;BME280;37093;37.716;-122.060;2023-08-17T02:16:48;99422.83;;;30.57;29.11
51053;BME280;37093;37.716;-122.060;2023-08-17T02:19:18;99423.60;;;30.49;28.87
51053;BME280;37093;37.716;-122.060;2023-08-17T02:21:46;99429.71;;;30.03;30.40
51053;BME280;37093;37.716;-122.060;2023-08-17T02:24:15;99438.52;;;29.82;29.85
51053;BME280;37093;37.716;-122.060;2023-08-17T02:26:46;99434.76;;;30.36;29.69
51053;BME280;37093;37.716;-122.060;2023-08-17T02:29:15;99432.35;;;30.49;29.27
51053;BME280;37093;37.716;-122.060;2023-08-17T02:31:45;99431.98;;;30.33;29.45
51053;BME280;37093;37.716;-122.060;2023-08-17T02:34:13;99432.39;;;30.50;29.10
51053;BME280;37093;37.716;-122.060;2023-08-17T02:36:44;99441.00;;;30.12;29.49
51053;BME280;37093;37.716;-122.060;2023-08-17T02:39:16;99442.98;;;30.22;29.57
51053;BME280;37093;37.716;-122.060;2023-08-17T02:41:47;99441.86;;;30.21;29.60
51053;BME280;37093;37.716;-122.060;2023-08-17T02:44:18;99443.39;;;28.82;31.46
51053;BME280;37093;37.716;-122.060;2023-08-17T02:46:46;99445.72;;;29.27;30.86
51053;BME280;37093;37.716;-122.060;2023-08-17T02:49:16;99452.19;;;29.46;30.65
51053;BME280;37093;37.716;-122.060;2023-08-17T02:51:46;99454.19;;;29.47;30.21
51053;BME280;37093;37.716;-122.060;2023-08-17T02:54:14;99448.76;;;29.90;30.49
51053;BME280;37093;37.716;-122.060;2023-08-17T02:56:46;99444.34;;;29.30;30.63
51053;BME280;37093;37.716;-122.060;2023-08-17T02:59:14;99446.63;;;29.28;30.96
51053;BME280;37093;37.716;-122.060;2023-08-17T03:01:43;99449.40;;;29.82;30.30
51053;BME280;37093;37.716;-122.060;2023-08-17T03:04:11;99456.53;;;29.64;30.30
51053;BME280;37093;37.716;-122.060;2023-08-17T03:06:40;99469.63;;;29.43;30.40
51053;BME280;37093;37.716;-122.060;2023-08-17T03:09:09;99489.07;;;29.25;30.82
51053;BME280;37093;37.716;-122.060;2023-08-17T03:11:37;99493.93;;;29.32;30.47
51053;BME280;37093;37.716;-122.060;2023-08-17T03:14:09;99497.96;;;29.21;30.83
51053;BME280;37093;37.716;-122.060;2023-08-17T03:16:38;99498.22;;;28.53;31.14
51053;BME280;37093;37.716;-122.060;2023-08-17T03:19:10;99501.22;;;29.51;30.99
51053;BME280;37093;37.716;-122.060;2023-08-17T03:21:38;99501.19;;;29.43;30.65
51053;BME280;37093;37.716;-122.060;2023-08-17T03:24:07;99500.92;;;28.88;30.75
51053;BME280;37093;37.716;-122.060;2023-08-17T03:26:36;99499.12;;;29.11;30.50
51053;BME280;37093;37.716;-122.060;2023-08-17T03:29:06;99504.35;;;29.33;30.49
51053;BME280;37093;37.716;-122.060;2023-08-17T03:31:35;99506.41;;;29.22;30.62
51053;BME280;37093;37.716;-122.060;2023-08-17T03:34:04;99509.17;;;29.29;31.03
51053;BME280;37093;37.716;-122.060;2023-08-17T03:36:32;99514.91;;;28.80;31.06
51053;BME280;37093;37.716;-122.060;2023-08-17T03:39:02;99519.45;;;29.04;30.87
51053;BME280;37093;37.716;-122.060;2023-08-17T03:41:30;99517.92;;;29.32;30.95
51053;BME280;37093;37.716;-122.060;2023-08-17T03:43:58;99521.10;;;29.11;31.37
51053;BME280;37093;37.716;-122.060;2023-08-17T03:46:27;99518.38;;;28.97;31.17
51053;BME280;37093;37.716;-122.060;2023-08-17T03:48:55;99520.46;;;28.97;31.21
51053;BME280;37093;37.716;-122.060;2023-08-17T03:51:24;99517.15;;;28.92;31.29
51053;BME280;37093;37.716;-122.060;2023-08-17T03:53:52;99514.15;;;28.93;31.80
51053;BME280;37093;37.716;-122.060;2023-08-17T03:56:21;99515.50;;;28.74;31.55
51053;BME280;37093;37.716;-122.060;2023-08-17T03:58:49;99520.35;;;28.73;31.73
51053;BME280;37093;37.716;-122.060;2023-08-17T04:01:17;99523.46;;;28.74;31.47
51053;BME280;37093;37.716;-122.060;2023-08-17T04:03:46;99521.92;;;28.72;31.56
51053;BME280;37093;37.716;-122.060;2023-08-17T04:06:15;99524.52;;;29.00;31.40
51053;BME280;37093;37.716;-122.060;2023-08-17T04:08:43;99520.23;;;28.37;31.67
51053;BME280;37093;37.716;-122.060;2023-08-17T04:11:11;99514.99;;;28.06;32.14
51053;BME280;37093;37.716;-122.060;2023-08-17T04:13:40;99517.00;;;28.50;32.12
51053;BME280;37093;37.716;-122.060;2023-08-17T04:16:09;99516.76;;;28.35;31.68
51053;BME280;37093;37.716;-122.060;2023-08-17T04:18:37;99516.65;;;28.40;31.28
51053;BME280;37093;37.716;-122.060;2023-08-17T04:21:06;99516.39;;;28.70;31.76
51053;BME280;37093;37.716;-122.060;2023-08-17T04:23:34;99517.47;;;28.15;32.07
51053;BME280;37093;37.716;-122.060;2023-08-17T04:26:03;99520.30;;;28.21;31.93
51053;BME280;37093;37.716;-122.060;2023-08-17T04:28:31;99531.03;;;27.86;31.94
51053;BME280;37093;37.716;-122.060;2023-08-17T04:31:00;99539.33;;;28.36;32.10
51053;BME280;37093;37.716;-122.060;2023-08-17T04:33:28;99540.56;;;27.85;32.44
51053;BME280;37093;37.716;-122.060;2023-08-17T04:35:57;99540.97;;;28.22;32.21
51053;BME280;37093;37.716;-122.060;2023-08-17T04:38:25;99539.11;;;28.30;31.98
51053;BME280;37093;37.716;-122.060;2023-08-17T04:40:54;99540.91;;;27.74;32.04
51053;BME280;37093;37.716;-122.060;2023-08-17T04:43:22;99539.91;;;27.93;32.29
51053;BME280;37093;37.716;-122.060;2023-08-17T04:45:51;99536.50;;;27.64;32.81
51053;BME280;37093;37.716;-122.060;2023-08-17T04:48:20;99538.36;;;27.55;33.05
51053;BME280;37093;37.716;-122.060;2023-08-17T04:50:49;99544.86;;;27.17;33.17
51053;BME280;37093;37.716;-122.060;2023-08-17T04:53:17;99548.97;;;27.26;33.17
51053;BME280;37093;37.716;-122.060;2023-08-17T04:55:45;99549.28;;;27.25;32.98
51053;BME280;37093;37.716;-122.060;2023-08-17T04:58:14;99549.60;;;27.42;33.23
51053;BME280;37093;37.716;-122.060;2023-08-17T05:00:42;99547.51;;;26.51;33.85
51053;BME280;37093;37.716;-122.060;2023-08-17T05:03:11;99544.16;;;26.94;33.73
51053;BME280;37093;37.716;-122.060;2023-08-17T05:05:39;99539.45;;;26.94;33.78
51053;BME280;37093;37.716;-122.060;2023-08-17T05:08:08;99542.01;;;26.96;33.71
51053;BME280;37093;37.716;-122.060;2023-08-17T05:10:36;99543.21;;;26.54;34.42
51053;BME280;37093;37.716;-122.060;2023-08-17T05:13:05;99541.80;;;26.60;34.30
51053;BME280;37093;37.716;-122.060;2023-08-17T05:15:33;99543.12;;;26.43;34.42
51053;BME280;37093;37.716;-122.060;2023-08-17T05:18:02;99542.86;;;26.51;34.61
51053;BME280;37093;37.716;-122.060;2023-08-17T05:20:30;99549.09;;;26.16;34.85
51053;BME280;37093;37.716;-122.060;2023-08-17T05:22:59;99548.16;;;26.25;34.25
51053;BME280;37093;37.716;-122.060;2023-08-17T05:25:27;99547.18;;;26.37;34.21
51053;BME280;37093;37.716;-122.060;2023-08-17T05:27:56;99541.01;;;26.59;33.46
51053;BME280;37093;37.716;-122.060;2023-08-17T05:30:24;99540.99;;;26.63;33.16
51053;BME280;37093;37.716;-122.060;2023-08-17T05:32:53;99542.80;;;26.55;33.79
51053;BME280;37093;37.716;-122.060;2023-08-17T05:35:21;99540.92;;;26.55;33.71
51053;BME280;37093;37.716;-122.060;2023-08-17T05:37:50;99533.86;;;27.11;33.76
51053;BME280;37093;37.716;-122.060;2023-08-17T05:40:18;99536.76;;;26.72;33.97
51053;BME280;37093;37.716;-122.060;2023-08-17T05:42:47;99533.79;;;26.32;33.81
51053;BME280;37093;37.716;-122.060;2023-08-17T05:45:15;99532.45;;;26.68;33.27
51053;BME280;37093;37.716;-122.060;2023-08-17T05:47:43;99534.99;;;26.10;34.53
51053;BME280;37093;37.716;-122.060;2023-08-17T05:50:12;99542.72;;;26.33;33.96
51053;BME280;37093;37.716;-122.060;2023-08-17T05:52:41;99542.18;;;26.50;33.09
51053;BME280;37093;37.716;-122.060;2023-08-17T05:55:09;99538.15;;;26.37;32.97
51053;BME280;37093;37.716;-122.060;2023-08-17T05:57:38;99542.74;;;26.26;33.57
51053;BME280;37093;37.716;-122.060;2023-08-17T06:00:07;99548.25;;;26.18;33.66
51053;BME280;37093;37.716;-122.060;2023-08-17T06:02:35;99548.43;;;26.47;33.10
51053;BME280;37093;37.716;-122.060;2023-08-17T06:05:05;99547.07;;;26.61;32.62
51053;BME280;37093;37.716;-122.060;2023-08-17T06:07:33;99539.43;;;26.36;32.90
51053;BME280;37093;37.716;-122.060;2023-08-17T06:10:04;99536.61;;;26.75;32.93
51053;BME280;37093;37.716;-122.060;2023-08-17T06:12:33;99540.44;;;26.33;33.33
51053;BME280;37093;37.716;-122.060;2023-08-17T06:15:02;99538.94;;;26.19;33.35
51053;BME280;37093;37.716;-122.060;2023-08-17T06:17:31;99529.66;;;26.80;33.01
51053;BME280;37093;37.716;-122.060;2023-08-17T06:20:00;99524.61;;;26.90;32.60
51053;BME280;37093;37.716;-122.060;2023-08-17T06:22:28;99518.67;;;26.85;33.28
51053;BME280;37093;37.716;-122.060;2023-08-17T06:24:57;99516.03;;;26.44;33.12
51053;BME280;37093;37.716;-122.060;2023-08-17T06:27:25;99517.40;;;25.81;33.95
51053;BME280;37093;37.716;-122.060;2023-08-17T06:29:53;99523.12;;;26.34;33.85
51053;BME280;37093;37.716;-122.060;2023-08-17T06:32:22;99517.58;;;26.56;33.36
51053;BME280;37093;37.716;-122.060;2023-08-17T06:34:50;99516.54;;;26.49;33.09
51053;BME280;37093;37.716;-122.060;2023-08-17T06:37:19;99516.03;;;26.51;32.96
51053;BME280;37093;37.716;-122.060;2023-08-17T06:39:47;99518.87;;;26.34;32.86
51053;BME280;37093;37.716;-122.060;2023-08-17T06:42:16;99516.64;;;26.69;32.70
51053;BME280;37093;37.716;-122.060;2023-08-17T06:44:44;99512.37;;;26.70;33.07
51053;BME280;37093;37.716;-122.060;2023-08-17T06:47:13;99509.92;;;26.56;32.85
51053;BME280;37093;37.716;-122.060;2023-08-17T06:49:42;99513.27;;;26.69;33.46
51053;BME280;37093;37.716;-122.060;2023-08-17T06:52:10;99513.14;;;26.80;33.33
51053;BME280;37093;37.716;-122.060;2023-08-17T06:54:38;99517.00;;;26.60;33.53
51053;BME280;37093;37.716;-122.060;2023-08-17T06:57:07;99516.87;;;26.63;33.59
51053;BME280;37093;37.716;-122.060;2023-08-17T06:59:35;99519.06;;;26.81;33.56
51053;BME280;37093;37.716;-122.060;2023-08-17T07:01:14;99521.69;;;25.71;33.84
51053;BME280;37093;37.716;-122.060;2023-08-17T07:03:43;99521.65;;;25.68;32.95
51053;BME280;37093;37.716;-122.060;2023-08-17T07:06:11;99517.52;;;26.90;31.42
51053;BME280;37093;37.716;-122.060;2023-08-17T07:08:40;99512.32;;;27.81;31.77
51053;BME280;37093;37.716;-122.060;2023-08-17T07:11:08;99505.53;;;27.23;32.11
51053;BME280;37093;37.716;-122.060;2023-08-17T07:13:37;99500.53;;;27.08;33.22
51053;BME280;37093;37.716;-122.060;2023-08-17T07:16:05;99497.64;;;26.70;33.98
51053;BME280;37093;37.716;-122.060;2023-08-17T07:18:34;99498.50;;;26.46;34.21
51053;BME280;37093;37.716;-122.060;2023-08-17T07:21:02;99498.73;;;26.41;34.16
51053;BME280;37093;37.716;-122.060;2023-08-17T07:23:30;99504.38;;;26.45;34.54
51053;BME280;37093;37.716;-122.060;2023-08-17T07:25:58;99515.57;;;26.10;34.81
51053;BME280;37093;37.716;-122.060;2023-08-17T07:28:27;99515.22;;;25.76;35.12
51053;BME280;37093;37.716;-122.060;2023-08-17T07:30:55;99507.65;;;26.15;34.73
51053;BME280;37093;37.716;-122.060;2023-08-17T07:33:24;99502.03;;;26.25;34.63
51053;BME280;37093;37.716;-122.060;2023-08-17T07:35:52;99496.90;;;26.03;34.74
51053;BME280;37093;37.716;-122.060;2023-08-17T07:38:21;99497.14;;;26.15;34.76
51053;BME280;37093;37.716;-122.060;2023-08-17T07:40:49;99494.44;;;25.78;35.08
51053;BME280;37093;37.716;-122.060;2023-08-17T07:43:18;99491.52;;;25.79;35.35
51053;BME280;37093;37.716;-122.060;2023-08-17T07:45:51;99489.97;;;25.77;35.72
51053;BME280;37093;37.716;-122.060;2023-08-17T07:48:20;99492.71;;;25.63;35.40
51053;BME280;37093;37.716;-122.060;2023-08-17T07:50:49;99499.33;;;25.59;35.90
51053;BME280;37093;37.716;-122.060;2023-08-17T07:53:19;99489.73;;;25.49;35.61
51053;BME280;37093;37.716;-122.060;2023-08-17T07:55:47;99481.15;;;25.74;35.37
51053;BME280;37093;37.716;-122.060;2023-08-17T07:58:15;99477.62;;;25.95;35.41
51053;BME280;37093;37.716;-122.060;2023-08-17T08:00:44;99483.23;;;25.47;35.84
51053;BME280;37093;37.716;-122.060;2023-08-17T08:03:12;99484.39;;;25.30;35.49
51053;BME280;37093;37.716;-122.060;2023-08-17T08:05:42;99484.86;;;25.00;35.87
51053;BME280;37093;37.716;-122.060;2023-08-17T08:08:10;99478.90;;;25.54;35.53
51053;BME280;37093;37.716;-122.060;2023-08-17T08:10:39;99473.97;;;25.55;35.76
51053;BME280;37093;37.716;-122.060;2023-08-17T08:13:07;99472.28;;;25.15;36.10
51053;BME280;37093;37.716;-122.060;2023-08-17T08:15:36;99472.42;;;25.30;36.27
51053;BME280;37093;37.716;-122.060;2023-08-17T08:18:05;99483.23;;;24.57;37.09
51053;BME280;37093;37.716;-122.060;2023-08-17T08:20:33;99488.58;;;22.69;41.02
51053;BME280;37093;37.716;-122.060;2023-08-17T08:23:01;99486.36;;;21.62;44.84
51053;BME280;37093;37.716;-122.060;2023-08-17T08:25:29;99472.88;;;22.75;42.78
51053;BME280;37093;37.716;-122.060;2023-08-17T08:27:57;99459.80;;;23.62;42.54
51053;BME280;37093;37.716;-122.060;2023-08-17T08:30:26;99464.94;;;23.94;43.60
51053;BME280;37093;37.716;-122.060;2023-08-17T08:32:55;99467.91;;;23.35;41.63
51053;BME280;37093;37.716;-122.060;2023-08-17T08:35:23;99474.76;;;24.09;41.09
51053;BME280;37093;37.716;-122.060;2023-08-17T08:37:51;99475.41;;;24.19;41.31
51053;BME280;37093;37.716;-122.060;2023-08-17T08:40:20;99475.53;;;24.20;42.50
51053;BME280;37093;37.716;-122.060;2023-08-17T08:42:53;99470.28;;;24.20;43.11
51053;BME280;37093;37.716;-122.060;2023-08-17T08:45:23;99470.11;;;24.10;43.80
51053;BME280;37093;37.716;-122.060;2023-08-17T08:47:51;99466.23;;;24.43;43.02
51053;BME280;37093;37.716;-122.060;2023-08-17T08:50:20;99460.05;;;23.97;45.39
51053;BME280;37093;37.716;-122.060;2023-08-17T08:52:57;99457.31;;;23.96;44.06
51053;BME280;37093;37.716;-122.060;2023-08-17T08:55:29;99463.06;;;23.92;45.47
51053;BME280;37093;37.716;-122.060;2023-08-17T08:57:59;99462.32;;;23.72;44.57
51053;BME280;37093;37.716;-122.060;2023-08-17T09:00:27;99454.63;;;23.93;44.60
51053;BME280;37093;37.716;-122.060;2023-08-17T09:02:56;99452.03;;;23.61;46.08
51053;BME280;37093;37.716;-122.060;2023-08-17T09:05:25;99445.36;;;23.96;44.00
51053;BME280;37093;37.716;-122.060;2023-08-17T09:07:55;99441.48;;;23.82;42.88
51053;BME280;37093;37.716;-122.060;2023-08-17T09:10:24;99437.60;;;24.17;43.27
51053;BME280;37093;37.716;-122.060;2023-08-17T09:12:52;99429.59;;;24.11;42.63
51053;BME280;37093;37.716;-122.060;2023-08-17T09:15:21;99427.37;;;23.92;42.19
51053;BME280;37093;37.716;-122.060;2023-08-17T09:17:49;99423.93;;;23.50;43.90
51053;BME280;37093;37.716;-122.060;2023-08-17T09:20:36;99422.71;;;23.65;43.31
51053;BME280;37093;37.716;-122.060;2023-08-17T09:23:09;99417.59;;;23.63;41.36
51053;BME280;37093;37.716;-122.060;2023-08-17T09:25:39;99413.99;;;23.94;41.59
51053;BME280;37093;37.716;-122.060;2023-08-17T09:28:09;99415.44;;;23.57;42.43
51053;BME280;37093;37.716;-122.060;2023-08-17T09:30:54;99414.30;;;23.16;43.54
51053;BME280;37093;37.716;-122.060;2023-08-17T09:33:23;99420.33;;;22.47;44.47
51053;BME280;37093;37.716;-122.060;2023-08-17T09:35:53;99414.26;;;23.02;43.84
51053;BME280;37093;37.716;-122.060;2023-08-17T09:38:22;99421.10;;;22.64;44.26
51053;BME280;37093;37.716;-122.060;2023-08-17T09:40:50;99416.46;;;22.97;42.19
51053;BME280;37093;37.716;-122.060;2023-08-17T09:43:19;99416.59;;;23.58;42.62
51053;BME280;37093;37.716;-122.060;2023-08-17T09:45:48;99419.78;;;23.63;41.99
51053;BME280;37093;37.716;-122.060;2023-08-17T09:48:19;99413.00;;;23.41;41.42
51053;BME280;37093;37.716;-122.060;2023-08-17T09:50:48;99412.26;;;23.67;41.18
51053;BME280;37093;37.716;-122.060;2023-08-17T09:53:18;99410.96;;;23.62;41.17
51053;BME280;37093;37.716;-122.060;2023-08-17T09:55:47;99412.74;;;23.97;40.78
51053;BME280;37093;37.716;-122.060;2023-08-17T09:58:15;99412.00;;;23.70;40.77
51053;BME280;37093;37.716;-122.060;2023-08-17T10:00:45;99412.29;;;23.68;40.39
51053;BME280;37093;37.716;-122.060;2023-08-17T10:03:15;99410.49;;;23.96;40.73
51053;BME280;37093;37.716;-122.060;2023-08-17T10:05:46;99412.14;;;23.75;40.14
51053;BME280;37093;37.716;-122.060;2023-08-17T10:08:20;99412.82;;;23.80;40.62
51053;BME280;37093;37.716;-122.060;2023-08-17T10:10:48;99409.38;;;23.57;40.25
51053;BME280;37093;37.716;-122.060;2023-08-17T10:13:23;99408.09;;;23.84;40.70
51053;BME280;37093;37.716;-122.060;2023-08-17T10:16:01;99410.03;;;23.83;41.21
51053;BME280;37093;37.716;-122.060;2023-08-17T10:18:37;99408.33;;;23.88;40.83
51053;BME280;37093;37.716;-122.060;2023-08-17T10:21:10;99405.49;;;23.87;41.58
51053;BME280;37093;37.716;-122.060;2023-08-17T10:23:39;99404.88;;;23.69;40.92
51053;BME280;37093;37.716;-122.060;2023-08-17T10:26:07;99408.99;;;24.00;41.32
51053;BME280;37093;37.716;-122.060;2023-08-17T10:28:36;99411.39;;;23.61;41.91
51053;BME280;37093;37.716;-122.060;2023-08-17T10:31:06;99405.91;;;23.89;41.09
51053;BME280;37093;37.716;-122.060;2023-08-17T10:33:35;99405.10;;;23.66;41.94
51053;BME280;37093;37.716;-122.060;2023-08-17T10:36:04;99401.92;;;23.92;42.24
51053;BME280;37093;37.716;-122.060;2023-08-17T10:38:33;99400.50;;;23.68;41.73
51053;BME280;37093;37.716;-122.060;2023-08-17T10:41:10;99401.51;;;23.46;41.17
51053;BME280;37093;37.716;-122.060;2023-08-17T10:43:56;99399.67;;;23.73;41.66
51053;BME280;37093;37.716;-122.060;2023-08-17T10:46:36;99400.08;;;23.67;41.75
51053;BME280;37093;37.716;-122.060;2023-08-17T10:49:05;99403.43;;;23.63;41.97
51053;BME280;37093;37.716;-122.060;2023-08-17T10:51:34;99405.97;;;23.54;41.86
51053;BME280;37093;37.716;-122.060;2023-08-17T10:54:03;99410.78;;;23.26;41.56
51053;BME280;37093;37.716;-122.060;2023-08-17T10:56:33;99407.63;;;23.50;41.59
51053;BME280;37093;37.716;-122.060;2023-08-17T10:59:02;99407.98;;;23.54;40.59
51053;BME280;37093;37.716;-122.060;2023-08-17T11:01:34;99409.01;;;23.24;42.45
51053;BME280;37093;37.716;-122.060;2023-08-17T11:04:13;99407.42;;;23.49;42.00
51053;BME280;37093;37.716;-122.060;2023-08-17T11:06:44;99410.09;;;23.28;42.40
51053;BME280;37093;37.716;-122.060;2023-08-17T11:09:12;99405.85;;;23.43;42.61
51053;BME280;37093;37.716;-122.060;2023-08-17T11:11:53;99405.76;;;23.24;42.25
51053;BME280;37093;37.716;-122.060;2023-08-17T11:14:21;99407.50;;;23.25;42.34
51053;BME280;37093;37.716;-122.060;2023-08-17T11:16:49;99404.90;;;23.07;42.06
51053;BME280;37093;37.716;-122.060;2023-08-17T11:19:18;99407.05;;;23.54;43.25
51053;BME280;37093;37.716;-122.060;2023-08-17T11:21:49;99402.47;;;23.10;42.63
51053;BME280;37093;37.716;-122.060;2023-08-17T11:24:19;99401.77;;;23.43;43.17
51053;BME280;37093;37.716;-122.060;2023-08-17T11:26:48;99401.72;;;22.93;43.40
51053;BME280;37093;37.716;-122.060;2023-08-17T11:29:16;99396.64;;;22.89;42.68
51053;BME280;37093;37.716;-122.060;2023-08-17T11:31:45;99393.40;;;23.07;43.51
51053;BME280;37093;37.716;-122.060;2023-08-17T11:34:15;99393.22;;;22.99;43.50
51053;BME280;37093;37.716;-122.060;2023-08-17T11:36:44;99390.59;;;23.04;43.74
51053;BME280;37093;37.716;-122.060;2023-08-17T11:39:12;99390.88;;;22.82;43.37
51053;BME280;37093;37.716;-122.060;2023-08-17T11:41:41;99389.98;;;23.14;42.92
51053;BME280;37093;37.716;-122.060;2023-08-17T11:44:09;99389.57;;;22.96;42.52
51053;BME280;37093;37.716;-122.060;2023-08-17T11:46:38;99391.12;;;23.27;42.21
51053;BME280;37093;37.716;-122.060;2023-08-17T11:49:07;99391.74;;;23.01;42.59
51053;BME280;37093;37.716;-122.060;2023-08-17T11:51:35;99392.82;;;23.06;42.85
51053;BME280;37093;37.716;-122.060;2023-08-17T11:54:04;99392.30;;;23.19;42.97
51053;BME280;37093;37.716;-122.060;2023-08-17T11:56:33;99391.84;;;22.98;43.07
51053;BME280;37093;37.716;-122.060;2023-08-17T11:59:09;99396.25;;;22.92;42.80
51053;BME280;37093;37.716;-122.060;2023-08-17T12:01:38;99398.83;;;22.64;43.41
51053;BME280;37093;37.716;-122.060;2023-08-17T12:04:07;99396.46;;;22.64;43.63
51053;BME280;37093;37.716;-122.060;2023-08-17T12:06:36;99397.94;;;22.71;43.58
51053;BME280;37093;37.716;-122.060;2023-08-17T12:09:07;99399.01;;;22.69;44.24
51053;BME280;37093;37.716;-122.060;2023-08-17T12:11:35;99397.84;;;22.59;44.00
51053;BME280;37093;37.716;-122.060;2023-08-17T12:14:09;99400.43;;;22.48;44.31
51053;BME280;37093;37.716;-122.060;2023-08-17T12:16:46;99400.86;;;22.03;44.77
51053;BME280;37093;37.716;-122.060;2023-08-17T12:19:15;99403.08;;;22.19;44.80
51053;BME280;37093;37.716;-122.060;2023-08-17T12:21:43;99402.39;;;22.32;43.52
51053;BME280;37093;37.716;-122.060;2023-08-17T12:24:11;99401.35;;;22.26;44.21
51053;BME280;37093;37.716;-122.060;2023-08-17T12:26:42;99404.82;;;22.58;44.14
51053;BME280;37093;37.716;-122.060;2023-08-17T12:29:10;99406.30;;;22.32;44.24
51053;BME280;37093;37.716;-122.060;2023-08-17T12:31:39;99407.98;;;22.35;43.64
51053;BME280;37093;37.716;-122.060;2023-08-17T12:34:07;99411.98;;;22.28;44.63
51053;BME280;37093;37.716;-122.060;2023-08-17T12:36:36;99413.20;;;22.29;43.65
51053;BME280;37093;37.716;-122.060;2023-08-17T12:39:05;99415.41;;;22.50;43.92
51053;BME280;37093;37.716;-122.060;2023-08-17T12:41:33;99416.07;;;22.44;44.90